Terminal Aerodrome Forecast
Issued by NWS Bismarck, ND

Home | Current Version | Previous Version | Text Only | Print | Product List | Glossary On
Versions: 1 2 3 4 5 6 7 8 9 10 11 12 13 14 15 16 17 18 19 20
000
FTUS43 KBIS 261100
TAFBIS
TAF
KBIS 261127Z 2612/2712 02008KT P6SM -SN SCT015 BKN025 OVC035
      TEMPO 2612/2616 2SM -SN BR BKN015 OVC025
     FM261600 05007KT P6SM -SN BKN025 OVC070
     FM261900 06004KT P6SM BKN035
     FM270100 09005KT P6SM SCT035
     FM270600 13005KT P6SM SCT025=

USA.gov is the U.S. government's official web portal to all federal, state and local government web resources and services.